createdAt,value
2018-06-12T00:01:29.682Z,81.56
2018-06-12T00:03:58.825Z,81.22
2018-06-12T00:06:27.945Z,80.00
2018-06-12T00:08:57.073Z,81.60
2018-06-12T00:11:26.298Z,81.02
2018-06-12T00:13:55.446Z,81.65
2018-06-12T00:16:24.566Z,81.21
2018-06-12T00:18:53.689Z,81.14
2018-06-12T00:21:22.817Z,80.97
2018-06-12T00:23:51.933Z,81.28
2018-06-12T00:26:21.038Z,81.34
2018-06-12T00:28:50.153Z,80.88
2018-06-12T00:31:19.297Z,81.55
2018-06-12T00:33:48.426Z,81.63
2018-06-12T00:36:17.578Z,81.32
2018-06-12T00:38:46.683Z,81.14
2018-06-12T00:41:15.834Z,80.21
2018-06-12T00:43:44.986Z,81.25
2018-06-12T00:46:14.125Z,81.26
2018-06-12T00:48:43.278Z,80.81
2018-06-12T00:51:12.442Z,80.13
2018-06-12T00:53:41.579Z,80.32
2018-06-12T00:56:11.833Z,79.85
2018-06-12T00:58:40.930Z,80.56
2018-06-12T01:01:10.077Z,80.43
2018-06-12T01:03:39.189Z,79.32
2018-06-12T01:06:08.310Z,79.64
2018-06-12T01:08:37.421Z,80.07
2018-06-12T01:11:06.573Z,80.12
2018-06-12T01:13:35.694Z,80.97
2018-06-12T01:16:04.805Z,81.26
2018-06-12T01:18:33.941Z,79.86
2018-06-12T01:21:03.526Z,80.14
2018-06-12T01:23:32.635Z,79.19
2018-06-12T01:26:01.742Z,80.15
2018-06-12T01:28:30.886Z,81.11
2018-06-12T01:30:59.990Z,80.98
2018-06-12T01:33:29.153Z,79.99
2018-06-12T01:35:58.261Z,81.10
2018-06-12T01:38:27.397Z,80.44
2018-06-12T01:40:56.517Z,79.70
2018-06-12T01:43:25.629Z,80.73
2018-06-12T01:45:54.765Z,81.45
2018-06-12T01:48:23.947Z,80.77
2018-06-12T01:50:53.077Z,80.50
2018-06-12T01:53:22.208Z,80.64
2018-06-12T01:55:51.343Z,80.88
2018-06-12T01:58:24.321Z,80.76
2018-06-12T02:00:53.457Z,81.33
2018-06-12T02:03:22.557Z,80.91
2018-06-12T02:05:51.686Z,80.55
2018-06-12T02:08:20.833Z,80.26
2018-06-12T02:10:49.986Z,79.89
2018-06-12T02:13:19.114Z,79.99
2018-06-12T02:15:48.249Z,80.56
2018-06-12T02:18:17.375Z,79.99
2018-06-12T02:20:46.545Z,82.09
2018-06-12T02:23:15.682Z,82.20
2018-06-12T02:25:44.782Z,82.37
2018-06-12T02:28:13.921Z,80.78
2018-06-12T02:30:43.058Z,80.42
2018-06-12T02:33:12.166Z,80.62
2018-06-12T02:35:41.284Z,79.33
2018-06-12T02:38:10.396Z,79.59
2018-06-12T02:40:39.545Z,79.58
2018-06-12T02:43:08.926Z,80.17
2018-06-12T02:45:38.054Z,77.99
2018-06-12T02:48:07.154Z,79.11
2018-06-12T02:50:36.318Z,78.42
2018-06-12T02:53:05.499Z,78.91
2018-06-12T02:55:34.657Z,79.03
2018-06-12T02:58:03.837Z,79.34
2018-06-12T03:00:32.958Z,77.71
2018-06-12T03:03:02.123Z,78.82
2018-06-12T03:05:31.249Z,80.29
2018-06-12T03:08:00.386Z,79.61
2018-06-12T03:10:29.514Z,80.03
2018-06-12T03:12:58.643Z,79.21
2018-06-12T03:15:28.199Z,80.18
2018-06-12T03:17:57.314Z,80.47
2018-06-12T03:20:37.722Z,80.32
2018-06-12T03:23:06.896Z,80.67
2018-06-12T03:25:36.014Z,80.23
2018-06-12T03:28:05.151Z,79.78
2018-06-12T03:30:34.277Z,79.21
2018-06-12T03:33:03.464Z,79.53
2018-06-12T03:35:32.678Z,79.75
2018-06-12T03:38:01.809Z,80.04
2018-06-12T03:40:30.994Z,79.63
2018-06-12T03:43:00.104Z,79.71
2018-06-12T03:45:29.254Z,79.98
2018-06-12T03:47:58.390Z,79.26
2018-06-12T03:50:27.554Z,79.63
2018-06-12T03:52:56.702Z,78.00
2018-06-12T03:55:25.846Z,78.32
2018-06-12T03:57:54.966Z,78.09
2018-06-12T04:00:24.093Z,78.95
2018-06-12T04:02:53.229Z,78.91
2018-06-12T04:05:22.339Z,77.76
2018-06-12T04:07:51.485Z,78.23
2018-06-12T04:10:20.613Z,78.40
2018-06-12T04:12:49.811Z,79.52
2018-06-12T04:15:18.934Z,79.34
2018-06-12T04:17:48.097Z,79.26
2018-06-12T04:20:17.231Z,79.06
2018-06-12T04:22:46.359Z,78.83
2018-06-12T04:25:15.492Z,78.49
2018-06-12T04:27:44.609Z,79.05
2018-06-12T04:30:13.750Z,79.29
2018-06-12T04:32:42.861Z,79.42
2018-06-12T04:35:11.993Z,79.99
2018-06-12T04:37:41.122Z,80.78
2018-06-12T04:40:10.588Z,80.12
2018-06-12T04:42:39.705Z,79.48
2018-06-12T04:45:08.821Z,79.61
2018-06-12T04:47:37.956Z,80.26
2018-06-12T04:50:07.084Z,81.56
2018-06-12T04:52:37.129Z,80.97
2018-06-12T04:55:06.254Z,80.58
2018-06-12T04:57:35.393Z,80.01
2018-06-12T05:00:04.542Z,80.84
2018-06-12T05:02:33.677Z,80.38
2018-06-12T05:05:02.817Z,79.79
2018-06-12T05:07:31.962Z,79.64
2018-06-12T05:10:01.100Z,80.98
2018-06-12T05:12:30.214Z,79.83
2018-06-12T05:14:59.331Z,80.60
2018-06-12T05:17:28.465Z,80.19
2018-06-12T05:19:57.610Z,81.60
2018-06-12T05:22:26.725Z,79.49
2018-06-12T05:24:55.846Z,79.75
2018-06-12T05:27:24.955Z,80.56
2018-06-12T05:29:54.101Z,80.41
2018-06-12T05:32:23.241Z,80.39
2018-06-12T05:34:52.413Z,79.55
2018-06-12T05:37:21.567Z,79.42
2018-06-12T05:39:50.710Z,80.07
2018-06-12T05:42:19.825Z,80.61
2018-06-12T05:44:48.934Z,79.86
2018-06-12T05:47:18.049Z,80.26
2018-06-12T05:49:47.176Z,79.98
2018-06-12T05:52:16.338Z,79.33
2018-06-12T05:54:45.485Z,79.72
2018-06-12T05:57:19.814Z,79.01
2018-06-12T05:59:49.036Z,80.35
2018-06-12T06:02:18.943Z,79.97
2018-06-12T06:04:48.554Z,80.09
2018-06-12T06:07:17.772Z,80.10
2018-06-12T06:09:46.894Z,79.36
2018-06-12T06:12:16.238Z,80.32
2018-06-12T06:14:45.408Z,79.77
2018-06-12T06:17:14.737Z,79.94
2018-06-12T06:19:43.937Z,78.54
2018-06-12T06:22:13.053Z,80.20
2018-06-12T06:24:42.177Z,77.83
2018-06-12T06:27:11.278Z,78.33
2018-06-12T06:29:40.445Z,79.09
2018-06-12T06:32:09.647Z,79.17
2018-06-12T06:34:38.763Z,78.83
2018-06-12T06:37:08.120Z,78.98
2018-06-12T06:39:37.225Z,78.62
2018-06-12T06:42:06.669Z,78.02
2018-06-12T06:44:35.779Z,78.17
2018-06-12T06:47:04.918Z,78.83
2018-06-12T06:49:35.147Z,77.78
2018-06-12T06:52:04.293Z,78.34
2018-06-12T06:54:33.430Z,79.24
2018-06-12T06:57:02.569Z,75.99
2018-06-12T06:59:31.693Z,76.79
2018-06-12T07:02:00.835Z,75.27
2018-06-12T07:04:29.947Z,74.83
2018-06-12T07:06:59.051Z,73.73
2018-06-12T07:09:28.192Z,74.03
2018-06-12T07:11:57.330Z,73.72
2018-06-12T07:14:26.465Z,76.89
2018-06-12T07:16:55.642Z,75.81
2018-06-12T07:19:24.764Z,70.87
2018-06-12T07:21:53.989Z,71.60
2018-06-12T07:24:23.161Z,70.30
2018-06-12T07:26:52.285Z,70.37
2018-06-12T07:29:23.468Z,71.74
2018-06-12T07:31:52.609Z,75.71
2018-06-12T07:34:21.746Z,73.78
2018-06-12T07:36:50.870Z,73.62
2018-06-12T07:39:19.994Z,72.53
2018-06-12T07:41:49.166Z,72.30
2018-06-12T07:44:18.281Z,71.42
2018-06-12T07:46:47.406Z,71.16
2018-06-12T07:49:16.633Z,70.32
2018-06-12T07:51:45.850Z,71.08
2018-06-12T07:54:15.089Z,72.58
2018-06-12T07:56:44.253Z,70.20
2018-06-12T07:59:13.385Z,71.18
2018-06-12T08:01:42.667Z,73.08
2018-06-12T08:04:11.802Z,72.19
2018-06-12T08:06:41.007Z,72.64
2018-06-12T08:09:10.115Z,69.68
2018-06-12T08:11:39.257Z,70.71
2018-06-12T08:14:08.370Z,68.92
2018-06-12T08:16:37.545Z,68.16
2018-06-12T08:19:06.666Z,68.92
2018-06-12T08:21:36.057Z,68.62
2018-06-12T08:24:05.190Z,71.34
2018-06-12T08:26:34.314Z,70.03
2018-06-12T08:29:03.507Z,69.32
2018-06-12T08:31:32.629Z,68.89
2018-06-12T08:34:01.763Z,68.78
2018-06-12T08:36:30.923Z,68.37
2018-06-12T08:39:00.063Z,69.67
2018-06-12T08:41:29.310Z,67.14
2018-06-12T08:43:58.777Z,69.17
2018-06-12T08:46:27.929Z,67.15
2018-06-12T08:48:57.184Z,68.95
2018-06-12T08:51:26.298Z,66.47
2018-06-12T08:53:55.529Z,66.93
2018-06-12T08:56:24.631Z,67.58
2018-06-12T08:58:53.808Z,65.37
2018-06-12T09:01:22.936Z,67.29
2018-06-12T09:03:52.078Z,65.33
2018-06-12T09:06:21.221Z,65.29
2018-06-12T09:08:50.372Z,66.62
2018-06-12T09:11:20.578Z,65.99
2018-06-12T09:13:49.701Z,67.04
2018-06-12T09:16:18.835Z,65.45
2018-06-12T09:18:47.953Z,66.41
2018-06-12T09:21:17.206Z,64.41
2018-06-12T09:23:48.470Z,64.64
2018-06-12T09:26:17.630Z,65.37
2018-06-12T09:28:46.764Z,64.69
2018-06-12T09:31:15.897Z,63.60
2018-06-12T09:33:45.015Z,64.42
2018-06-12T09:36:23.018Z,62.65
2018-06-12T09:38:54.210Z,63.32
2018-06-12T09:41:23.357Z,62.39
2018-06-12T09:43:52.486Z,63.54
2018-06-12T09:46:21.630Z,62.48
2018-06-12T09:48:50.759Z,64.18
2018-06-12T09:51:19.889Z,64.05
2018-06-12T09:53:49.022Z,64.05
2018-06-12T09:56:18.147Z,64.73
2018-06-12T09:58:47.369Z,63.29
2018-06-12T10:01:20.417Z,62.95
2018-06-12T10:03:50.745Z,63.62
2018-06-12T10:06:19.853Z,61.73
2018-06-12T10:08:49.025Z,61.11
2018-06-12T10:11:18.155Z,60.98
2018-06-12T10:13:47.282Z,64.74
2018-06-12T10:16:16.425Z,62.10
2018-06-12T10:18:45.596Z,61.19
2018-06-12T10:21:17.953Z,60.41
2018-06-12T10:23:47.100Z,61.26
2018-06-12T10:26:16.265Z,64.06
2018-06-12T10:28:45.449Z,62.56
2018-06-12T10:31:14.614Z,63.25
2018-06-12T10:33:43.750Z,63.17
2018-06-12T10:36:12.914Z,63.44
2018-06-12T10:38:42.028Z,64.64
2018-06-12T10:41:11.174Z,65.00
2018-06-12T10:43:40.401Z,64.72
2018-06-12T10:46:09.506Z,63.83
2018-06-12T10:48:38.657Z,63.86
2018-06-12T10:51:07.978Z,62.69
2018-06-12T10:53:37.111Z,61.33
2018-06-12T10:56:06.292Z,62.51
2018-06-12T10:58:35.405Z,65.34
2018-06-12T11:01:04.567Z,61.33
2018-06-12T11:03:33.767Z,63.59
2018-06-12T11:06:02.886Z,62.23
2018-06-12T11:08:32.073Z,61.34
2018-06-12T11:11:01.207Z,63.29
2018-06-12T11:13:30.331Z,63.55
2018-06-12T11:15:59.499Z,62.11
2018-06-12T11:18:28.655Z,62.58
2018-06-12T11:20:58.081Z,62.81
2018-06-12T11:23:27.238Z,63.79
2018-06-12T11:25:56.441Z,63.69
2018-06-12T11:28:25.582Z,63.22
2018-06-12T11:30:54.751Z,62.91
2018-06-12T11:33:23.956Z,61.68
2018-06-12T11:35:53.121Z,62.53
2018-06-12T11:38:22.509Z,62.86
2018-06-12T11:40:51.666Z,63.93
2018-06-12T11:43:20.809Z,61.47
2018-06-12T11:45:49.967Z,63.93
2018-06-12T11:48:19.174Z,61.09
2018-06-12T11:50:54.335Z,63.74
2018-06-12T11:53:23.483Z,61.42
2018-06-12T11:55:52.633Z,61.81
2018-06-12T11:58:21.789Z,62.80
2018-06-12T12:00:50.937Z,61.91
2018-06-12T12:03:20.092Z,61.79
2018-06-12T12:05:49.265Z,61.03
2018-06-12T12:08:18.430Z,63.44
2018-06-12T12:10:47.542Z,61.59
2018-06-12T12:13:16.681Z,66.19
2018-06-12T12:15:45.829Z,62.89
2018-06-12T12:18:14.954Z,62.38
2018-06-12T12:20:44.118Z,61.58
2018-06-12T12:23:13.508Z,63.25
2018-06-12T12:28:40.393Z,61.16
2018-06-12T12:31:09.489Z,62.02
2018-06-12T12:33:38.661Z,60.54
2018-06-12T12:36:07.841Z,60.70
2018-06-12T12:38:36.969Z,61.28
2018-06-12T12:41:06.102Z,60.34
2018-06-12T12:43:35.257Z,59.75
2018-06-12T12:46:04.398Z,60.09
2018-06-12T12:48:33.522Z,60.32
2018-06-12T12:51:02.650Z,59.10
2018-06-12T12:53:31.780Z,60.10
2018-06-12T12:56:00.995Z,59.35
2018-06-12T12:58:30.137Z,57.61
2018-06-12T13:00:59.305Z,58.28
2018-06-12T13:03:52.858Z,58.61
2018-06-12T13:06:21.978Z,57.43
2018-06-12T13:08:51.141Z,57.54
2018-06-12T13:11:20.305Z,59.42
2018-06-12T13:13:49.503Z,57.71
2018-06-12T13:16:18.662Z,55.53
2018-06-12T13:18:47.811Z,56.89
2018-06-12T13:21:16.937Z,56.51
2018-06-12T13:23:56.894Z,55.22
2018-06-12T13:26:26.015Z,56.26
2018-06-12T13:28:55.139Z,57.57
2018-06-12T13:31:24.325Z,58.76
2018-06-12T13:33:53.512Z,58.25
2018-06-12T13:36:22.641Z,59.17
2018-06-12T13:38:51.794Z,58.69
2018-06-12T13:41:20.934Z,59.78
2018-06-12T13:43:50.058Z,60.22
2018-06-12T13:46:19.247Z,59.12
2018-06-12T13:48:48.370Z,60.28
2018-06-12T13:51:17.510Z,61.48
2018-06-12T13:53:47.358Z,61.36
2018-06-12T13:56:16.606Z,61.25
2018-06-12T13:58:45.736Z,60.86
2018-06-12T14:01:14.889Z,59.35
2018-06-12T14:03:44.021Z,59.75
2018-06-12T14:06:13.182Z,59.32
2018-06-12T14:08:42.340Z,58.17
2018-06-12T14:11:12.257Z,58.40
2018-06-12T14:13:41.439Z,57.75
2018-06-12T14:16:10.564Z,57.65
2018-06-12T14:18:39.679Z,59.13
2018-06-12T14:21:08.949Z,59.66
2018-06-12T14:23:38.409Z,58.80
2018-06-12T14:26:07.569Z,59.54
2018-06-12T14:28:36.713Z,61.48
2018-06-12T14:31:06.043Z,60.49
2018-06-12T14:33:35.274Z,60.46
2018-06-12T14:36:04.515Z,60.77
2018-06-12T14:38:33.772Z,61.61
2018-06-12T14:41:02.937Z,63.66
2018-06-12T14:43:32.251Z,61.70
2018-06-12T14:46:01.367Z,61.54
2018-06-12T14:48:30.502Z,61.88
2018-06-12T14:50:59.645Z,61.83
2018-06-12T14:53:30.130Z,61.62
2018-06-12T14:55:59.245Z,60.93
2018-06-12T14:58:28.429Z,61.42
2018-06-12T15:00:57.548Z,61.27
2018-06-12T15:03:26.714Z,61.41
2018-06-12T15:05:55.962Z,62.95
2018-06-12T15:08:25.095Z,64.98
2018-06-12T15:10:58.196Z,64.40
2018-06-12T15:13:27.309Z,66.04
2018-06-12T15:15:56.449Z,64.21
2018-06-12T15:18:25.574Z,64.85
2018-06-12T15:20:54.747Z,66.45
2018-06-12T15:23:23.866Z,67.32
2018-06-12T15:25:53.003Z,68.52
2018-06-12T15:28:22.140Z,70.33
2018-06-12T15:30:51.284Z,70.42
2018-06-12T15:33:20.442Z,69.39
2018-06-12T15:35:49.588Z,69.85
2018-06-12T15:38:18.838Z,69.30
2018-06-12T15:40:47.971Z,70.39
2018-06-12T15:43:17.321Z,69.61
2018-06-12T15:45:46.583Z,68.15
2018-06-12T15:48:15.705Z,69.30
2018-06-12T15:50:44.892Z,67.26
2018-06-12T15:53:14.066Z,65.52
2018-06-12T15:55:43.217Z,66.96
2018-06-12T15:58:12.359Z,66.75
2018-06-12T16:00:41.636Z,66.45
2018-06-12T16:03:10.803Z,66.39
2018-06-12T16:05:39.956Z,67.61
2018-06-12T16:08:09.741Z,69.04
2018-06-12T16:10:38.961Z,68.74
2018-06-12T16:13:22.863Z,68.43
2018-06-12T16:19:01.742Z,68.05
2018-06-12T16:21:30.858Z,69.71
2018-06-12T16:24:00.028Z,68.82
2018-06-12T16:26:32.824Z,69.34
2018-06-12T16:29:01.995Z,69.36
2018-06-12T16:31:31.136Z,70.81
2018-06-12T16:34:00.313Z,70.91
2018-06-12T16:36:29.586Z,71.19
2018-06-12T16:38:58.786Z,72.53
2018-06-12T16:41:28.067Z,73.88
2018-06-12T16:43:57.478Z,74.49
2018-06-12T16:46:26.733Z,74.99
2018-06-12T16:48:57.978Z,73.70
2018-06-12T16:51:27.182Z,75.34
2018-06-12T16:53:56.352Z,75.27
2018-06-12T16:56:25.514Z,75.95
2018-06-12T16:58:54.713Z,76.02
2018-06-12T17:01:23.865Z,75.60
2018-06-12T17:03:52.991Z,76.66
2018-06-12T17:06:22.247Z,76.10
2018-06-12T17:08:52.448Z,75.92
2018-06-12T17:11:21.597Z,76.41
2018-06-12T17:13:50.861Z,75.80
2018-06-12T17:16:23.796Z,76.46
2018-06-12T17:18:53.013Z,75.72
2018-06-12T17:21:22.150Z,75.79
2018-06-12T17:23:52.341Z,75.64
2018-06-12T17:26:21.442Z,75.33
2018-06-12T17:28:50.666Z,75.81
2018-06-12T17:31:19.821Z,75.01
2018-06-12T17:33:48.939Z,74.18
2018-06-12T17:36:18.130Z,73.99
2018-06-12T17:38:49.301Z,73.56
2018-06-12T17:41:18.422Z,74.26
2018-06-12T17:43:48.635Z,74.41
2018-06-12T17:46:17.951Z,73.51
2018-06-12T17:48:47.072Z,73.90
2018-06-12T17:51:16.290Z,74.21
2018-06-12T17:53:45.435Z,75.00
2018-06-12T17:56:14.604Z,74.12
2018-06-12T17:58:43.728Z,73.67
2018-06-12T18:01:12.839Z,74.22
2018-06-12T18:03:43.997Z,73.99
2018-06-12T18:06:14.297Z,73.67
2018-06-12T18:08:43.518Z,73.43
2018-06-12T18:11:12.646Z,72.78
2018-06-12T18:13:42.359Z,72.41
2018-06-12T18:16:11.502Z,72.00
2018-06-12T18:18:40.614Z,73.27
2018-06-12T18:21:10.799Z,72.92
2018-06-12T18:23:39.948Z,72.83
2018-06-12T18:26:09.080Z,72.62
2018-06-12T18:28:43.400Z,72.35
2018-06-12T18:31:12.523Z,71.27
2018-06-12T18:33:41.869Z,72.26
2018-06-12T18:36:30.966Z,71.11
2018-06-12T18:39:00.158Z,71.86
2018-06-12T18:41:29.334Z,71.60
2018-06-12T18:43:58.462Z,71.66
2018-06-12T18:46:27.631Z,71.47
2018-06-12T18:48:57.071Z,71.15
2018-06-12T18:51:26.229Z,71.43
2018-06-12T18:53:55.352Z,69.95
2018-06-12T18:56:26.599Z,69.61
2018-06-12T18:58:55.715Z,70.11
2018-06-12T19:01:24.861Z,71.23
2018-06-12T19:03:53.998Z,69.74
2018-06-12T19:06:26.061Z,70.97
2018-06-12T19:08:55.168Z,71.09
2018-06-12T19:11:26.370Z,69.27
2018-06-12T19:13:55.503Z,70.29
2018-06-12T19:16:24.614Z,71.07
2018-06-12T19:18:54.816Z,68.74
2018-06-12T19:21:23.927Z,69.17
2018-06-12T19:23:53.066Z,68.92
2018-06-12T19:26:22.186Z,70.43
2018-06-12T19:28:55.014Z,70.55
2018-06-12T19:31:24.299Z,69.79
2018-06-12T19:33:55.565Z,68.35
2018-06-12T19:36:24.682Z,70.13
2018-06-12T19:38:54.856Z,69.64
2018-06-12T19:41:28.779Z,67.35
2018-06-12T19:43:58.035Z,69.64
2018-06-12T19:46:27.170Z,68.91
2018-06-12T19:48:57.684Z,69.49
2018-06-12T19:51:26.875Z,68.81
2018-06-12T19:53:57.139Z,67.33
2018-06-12T19:56:26.317Z,68.71
2018-06-12T19:58:55.421Z,68.76
2018-06-12T20:01:24.595Z,67.60
2018-06-12T20:03:53.770Z,68.73
2018-06-12T20:06:22.934Z,68.84
2018-06-12T20:08:52.150Z,69.63
2018-06-12T20:11:21.281Z,68.97
2018-06-12T20:13:50.447Z,69.56
2018-06-12T20:16:19.565Z,68.78
2018-06-12T20:18:48.687Z,68.05
2018-06-12T20:21:18.914Z,69.12
2018-06-12T20:23:48.038Z,69.28
2018-06-12T20:26:17.171Z,69.30
2018-06-12T20:28:47.438Z,68.45
2018-06-12T20:31:16.571Z,67.82
2018-06-12T20:33:45.755Z,69.34
2018-06-12T20:36:14.901Z,68.75
2018-06-12T20:38:44.004Z,68.82
2018-06-12T20:41:13.117Z,68.68
2018-06-12T20:43:42.290Z,68.79
2018-06-12T20:46:11.431Z,69.85
2018-06-12T20:48:40.565Z,69.38
2018-06-12T20:51:09.706Z,69.04
2018-06-12T20:53:38.845Z,70.37
2018-06-12T20:56:08.014Z,69.26
2018-06-12T20:58:37.160Z,69.35
2018-06-12T21:01:06.285Z,70.34
2018-06-12T21:03:35.506Z,70.20
2018-06-12T21:06:04.701Z,69.28
2018-06-12T21:08:33.933Z,69.40
2018-06-12T21:11:03.063Z,70.65
2018-06-12T21:13:32.188Z,69.05
2018-06-12T21:16:01.339Z,69.21
2018-06-12T21:18:30.502Z,69.48
2018-06-12T21:20:59.593Z,71.30
2018-06-12T21:23:28.738Z,69.41
2018-06-12T21:25:57.881Z,69.51
2018-06-12T21:28:27.012Z,69.39
2018-06-12T21:30:56.134Z,70.09
2018-06-12T21:33:25.273Z,70.61
2018-06-12T21:35:54.385Z,70.84
2018-06-12T21:38:23.513Z,70.85
2018-06-12T21:40:52.631Z,70.98
2018-06-12T21:43:21.758Z,71.67
2018-06-12T21:45:50.915Z,71.27
2018-06-12T21:48:20.073Z,71.15
2018-06-12T21:50:49.191Z,70.60
2018-06-12T21:53:18.327Z,70.73
2018-06-12T21:55:47.799Z,71.56
2018-06-12T21:58:17.015Z,71.69
2018-06-12T22:00:46.130Z,71.77
2018-06-12T22:03:15.266Z,70.99
2018-06-12T22:05:44.420Z,71.31
2018-06-12T22:08:13.566Z,71.13
2018-06-12T22:10:42.706Z,71.29
2018-06-12T22:13:11.837Z,71.30
2018-06-12T22:15:41.062Z,70.41
2018-06-12T22:18:10.215Z,70.41
2018-06-12T22:20:39.379Z,69.50
2018-06-12T22:23:08.518Z,70.13
2018-06-12T22:25:37.645Z,70.68
2018-06-12T22:28:07.815Z,70.36
2018-06-12T22:30:36.942Z,70.75
2018-06-12T22:33:06.073Z,70.49
2018-06-12T22:35:35.307Z,70.03
2018-06-12T22:38:04.461Z,71.14
2018-06-12T22:40:33.741Z,70.86
2018-06-12T22:43:02.861Z,69.28
2018-06-12T22:45:31.990Z,70.02
2018-06-12T22:48:01.182Z,69.84
2018-06-12T22:50:30.321Z,69.99
2018-06-12T22:52:59.465Z,69.58
2018-06-12T22:55:28.584Z,69.76
2018-06-12T22:57:57.705Z,70.19
2018-06-12T23:00:26.833Z,69.67
2018-06-12T23:02:55.970Z,70.57
2018-06-12T23:05:25.108Z,69.63
2018-06-12T23:07:54.277Z,69.72
2018-06-12T23:10:34.613Z,70.18
2018-06-12T23:13:03.728Z,70.17
2018-06-12T23:15:32.849Z,69.25
2018-06-12T23:18:01.986Z,70.24
2018-06-12T23:20:55.361Z,70.45
2018-06-12T23:23:24.526Z,70.58
2018-06-12T23:25:53.628Z,70.43
2018-06-12T23:28:22.810Z,70.41
2018-06-12T23:30:51.924Z,71.05
2018-06-12T23:33:21.086Z,70.57
2018-06-12T23:35:50.209Z,71.22
2018-06-12T23:38:19.339Z,70.45
2018-06-12T23:40:48.473Z,70.30
2018-06-12T23:43:17.602Z,71.08
2018-06-12T23:45:46.725Z,69.68
2018-06-12T23:48:15.889Z,70.80
2018-06-12T23:50:45.029Z,70.38
2018-06-12T23:53:14.142Z,69.49
2018-06-12T23:55:43.275Z,70.49
2018-06-12T23:58:12.398Z,69.71
